sensor_id;sensor_type;location;lat;lon;timestamp;P1;durP1;ratioP1;P2;durP2;ratioP2
17658;SDS011;8948;51.534;8.262;2023-04-12T00:00:22;10.50;;;2.13;;
17658;SDS011;8948;51.534;8.262;2023-04-12T00:05:23;11.30;;;2.83;;
17658;SDS011;8948;51.534;8.262;2023-04-12T00:10:26;9.13;;;2.07;;
17658;SDS011;8948;51.534;8.262;2023-04-12T00:15:26;9.93;;;1.90;;
17658;SDS011;8948;51.534;8.262;2023-04-12T00:20:27;8.27;;;2.60;;
17658;SDS011;8948;51.534;8.262;2023-04-12T00:25:27;7.30;;;2.20;;
17658;SDS011;8948;51.534;8.262;2023-04-12T00:30:28;7.80;;;2.17;;
17658;SDS011;8948;51.534;8.262;2023-04-12T00:35:28;9.93;;;2.53;;
17658;SDS011;8948;51.534;8.262;2023-04-12T00:40:29;7.37;;;2.07;;
17658;SDS011;8948;51.534;8.262;2023-04-12T00:45:29;8.40;;;2.37;;
17658;SDS011;8948;51.534;8.262;2023-04-12T00:50:30;14.73;;;2.77;;
17658;SDS011;8948;51.534;8.262;2023-04-12T00:55:31;15.07;;;2.47;;
17658;SDS011;8948;51.534;8.262;2023-04-12T01:00:32;8.67;;;2.40;;
17658;SDS011;8948;51.534;8.262;2023-04-12T01:05:35;6.13;;;2.20;;
17658;SDS011;8948;51.534;8.262;2023-04-12T01:10:49;12.13;;;2.60;;
17658;SDS011;8948;51.534;8.262;2023-04-12T01:16:08;10.13;;;2.53;;
17658;SDS011;8948;51.534;8.262;2023-04-12T01:21:15;9.20;;;2.23;;
17658;SDS011;8948;51.534;8.262;2023-04-12T01:26:26;10.67;;;2.10;;
17658;SDS011;8948;51.534;8.262;2023-04-12T01:31:32;5.60;;;1.90;;
17658;SDS011;8948;51.534;8.262;2023-04-12T01:36:35;11.57;;;2.20;;
17658;SDS011;8948;51.534;8.262;2023-04-12T01:41:38;11.43;;;2.57;;
17658;SDS011;8948;51.534;8.262;2023-04-12T01:46:41;14.93;;;2.40;;
17658;SDS011;8948;51.534;8.262;2023-04-12T01:52:02;11.10;;;2.57;;
17658;SDS011;8948;51.534;8.262;2023-04-12T01:57:11;5.87;;;1.93;;
17658;SDS011;8948;51.534;8.262;2023-04-12T02:02:14;11.83;;;2.30;;
17658;SDS011;8948;51.534;8.262;2023-04-12T02:07:15;13.70;;;2.47;;
17658;SDS011;8948;51.534;8.262;2023-04-12T02:12:17;9.30;;;2.27;;
17658;SDS011;8948;51.534;8.262;2023-04-12T02:17:18;7.57;;;2.33;;
17658;SDS011;8948;51.534;8.262;2023-04-12T02:22:19;12.70;;;2.20;;
17658;SDS011;8948;51.534;8.262;2023-04-12T02:27:19;9.67;;;1.97;;
17658;SDS011;8948;51.534;8.262;2023-04-12T02:32:20;8.37;;;2.00;;
17658;SDS011;8948;51.534;8.262;2023-04-12T02:37:20;7.63;;;2.27;;
17658;SDS011;8948;51.534;8.262;2023-04-12T02:42:21;6.17;;;2.20;;
17658;SDS011;8948;51.534;8.262;2023-04-12T02:47:22;5.90;;;1.93;;
17658;SDS011;8948;51.534;8.262;2023-04-12T02:52:27;11.40;;;2.43;;
17658;SDS011;8948;51.534;8.262;2023-04-12T02:57:28;11.27;;;2.63;;
17658;SDS011;8948;51.534;8.262;2023-04-12T03:02:29;15.67;;;2.80;;
17658;SDS011;8948;51.534;8.262;2023-04-12T03:07:29;4.93;;;2.13;;
17658;SDS011;8948;51.534;8.262;2023-04-12T03:12:30;9.17;;;2.23;;
17658;SDS011;8948;51.534;8.262;2023-04-12T03:17:31;11.17;;;2.83;;
17658;SDS011;8948;51.534;8.262;2023-04-12T03:22:31;10.50;;;2.43;;
17658;SDS011;8948;51.534;8.262;2023-04-12T03:27:32;9.67;;;2.30;;
17658;SDS011;8948;51.534;8.262;2023-04-12T03:32:32;6.93;;;2.20;;
17658;SDS011;8948;51.534;8.262;2023-04-12T03:37:33;14.50;;;2.20;;
17658;SDS011;8948;51.534;8.262;2023-04-12T03:42:34;6.33;;;2.17;;
17658;SDS011;8948;51.534;8.262;2023-04-12T03:47:35;6.13;;;1.80;;
17658;SDS011;8948;51.534;8.262;2023-04-12T03:52:36;6.43;;;2.10;;
17658;SDS011;8948;51.534;8.262;2023-04-12T03:57:36;10.63;;;2.53;;
17658;SDS011;8948;51.534;8.262;2023-04-12T04:02:37;11.30;;;2.10;;
17658;SDS011;8948;51.534;8.262;2023-04-12T04:07:38;6.57;;;1.80;;
17658;SDS011;8948;51.534;8.262;2023-04-12T04:12:38;3.97;;;1.70;;
17658;SDS011;8948;51.534;8.262;2023-04-12T04:17:39;3.10;;;1.70;;
17658;SDS011;8948;51.534;8.262;2023-04-12T04:22:41;4.53;;;1.87;;
17658;SDS011;8948;51.534;8.262;2023-04-12T04:27:43;8.63;;;1.83;;
17658;SDS011;8948;51.534;8.262;2023-04-12T04:32:44;4.57;;;1.90;;
17658;SDS011;8948;51.534;8.262;2023-04-12T04:37:47;5.23;;;1.93;;
17658;SDS011;8948;51.534;8.262;2023-04-12T04:42:47;3.93;;;1.73;;
17658;SDS011;8948;51.534;8.262;2023-04-12T04:47:53;8.27;;;1.60;;
17658;SDS011;8948;51.534;8.262;2023-04-12T04:52:54;4.93;;;1.57;;
17658;SDS011;8948;51.534;8.262;2023-04-12T04:57:55;3.63;;;1.60;;
17658;SDS011;8948;51.534;8.262;2023-04-12T05:02:56;5.57;;;1.70;;
17658;SDS011;8948;51.534;8.262;2023-04-12T05:07:57;3.23;;;1.60;;
17658;SDS011;8948;51.534;8.262;2023-04-12T05:12:57;4.20;;;1.60;;
17658;SDS011;8948;51.534;8.262;2023-04-12T05:17:58;3.80;;;1.50;;
17658;SDS011;8948;51.534;8.262;2023-04-12T05:22:58;3.27;;;1.40;;
17658;SDS011;8948;51.534;8.262;2023-04-12T05:28:00;3.07;;;1.23;;
17658;SDS011;8948;51.534;8.262;2023-04-12T05:33:00;1.93;;;1.27;;
17658;SDS011;8948;51.534;8.262;2023-04-12T05:38:01;2.63;;;1.20;;
17658;SDS011;8948;51.534;8.262;2023-04-12T05:43:01;2.60;;;1.60;;
17658;SDS011;8948;51.534;8.262;2023-04-12T05:48:02;2.90;;;1.13;;
17658;SDS011;8948;51.534;8.262;2023-04-12T05:53:03;2.17;;;1.30;;
17658;SDS011;8948;51.534;8.262;2023-04-12T05:58:04;1.87;;;1.20;;
17658;SDS011;8948;51.534;8.262;2023-04-12T06:03:05;1.27;;;1.10;;
17658;SDS011;8948;51.534;8.262;2023-04-12T06:08:05;2.53;;;1.20;;
17658;SDS011;8948;51.534;8.262;2023-04-12T06:13:07;2.07;;;1.30;;
17658;SDS011;8948;51.534;8.262;2023-04-12T06:18:07;1.43;;;1.00;;
17658;SDS011;8948;51.534;8.262;2023-04-12T06:23:08;1.97;;;1.10;;
17658;SDS011;8948;51.534;8.262;2023-04-12T06:28:09;3.33;;;1.10;;
17658;SDS011;8948;51.534;8.262;2023-04-12T06:33:10;2.40;;;1.30;;
17658;SDS011;8948;51.534;8.262;2023-04-12T06:38:10;1.10;;;1.00;;
17658;SDS011;8948;51.534;8.262;2023-04-12T06:43:11;1.67;;;1.20;;
17658;SDS011;8948;51.534;8.262;2023-04-12T06:48:12;1.83;;;1.17;;
17658;SDS011;8948;51.534;8.262;2023-04-12T06:53:12;1.57;;;0.97;;
17658;SDS011;8948;51.534;8.262;2023-04-12T06:58:13;2.87;;;1.13;;
17658;SDS011;8948;51.534;8.262;2023-04-12T07:03:13;2.17;;;1.00;;
17658;SDS011;8948;51.534;8.262;2023-04-12T07:08:14;0.93;;;0.90;;
17658;SDS011;8948;51.534;8.262;2023-04-12T07:13:14;1.20;;;1.10;;
17658;SDS011;8948;51.534;8.262;2023-04-12T07:18:15;2.23;;;1.10;;
17658;SDS011;8948;51.534;8.262;2023-04-12T07:23:16;1.30;;;0.90;;
17658;SDS011;8948;51.534;8.262;2023-04-12T07:28:17;5.13;;;1.53;;
17658;SDS011;8948;51.534;8.262;2023-04-12T07:33:18;1.40;;;1.00;;
17658;SDS011;8948;51.534;8.262;2023-04-12T07:38:19;3.53;;;1.00;;
17658;SDS011;8948;51.534;8.262;2023-04-12T07:43:20;4.60;;;1.27;;
17658;SDS011;8948;51.534;8.262;2023-04-12T07:48:21;0.90;;;0.90;;
17658;SDS011;8948;51.534;8.262;2023-04-12T07:53:22;1.07;;;0.97;;
17658;SDS011;8948;51.534;8.262;2023-04-12T07:58:25;1.00;;;0.90;;
17658;SDS011;8948;51.534;8.262;2023-04-12T08:03:26;0.90;;;0.90;;
17658;SDS011;8948;51.534;8.262;2023-04-12T08:08:27;2.00;;;1.07;;
17658;SDS011;8948;51.534;8.262;2023-04-12T08:13:27;1.20;;;1.00;;
17658;SDS011;8948;51.534;8.262;2023-04-12T08:18:28;0.80;;;0.80;;
17658;SDS011;8948;51.534;8.262;2023-04-12T08:23:28;1.00;;;0.83;;
17658;SDS011;8948;51.534;8.262;2023-04-12T08:28:29;0.80;;;0.80;;
17658;SDS011;8948;51.534;8.262;2023-04-12T08:33:30;3.80;;;0.77;;
17658;SDS011;8948;51.534;8.262;2023-04-12T08:38:30;0.90;;;0.90;;
17658;SDS011;8948;51.534;8.262;2023-04-12T08:43:32;0.70;;;0.70;;
17658;SDS011;8948;51.534;8.262;2023-04-12T08:48:33;0.70;;;0.70;;
17658;SDS011;8948;51.534;8.262;2023-04-12T08:53:35;1.57;;;0.90;;
17658;SDS011;8948;51.534;8.262;2023-04-12T08:58:37;0.70;;;0.70;;
17658;SDS011;8948;51.534;8.262;2023-04-12T09:03:40;1.00;;;0.80;;
17658;SDS011;8948;51.534;8.262;2023-04-12T09:08:54;1.80;;;0.80;;
17658;SDS011;8948;51.534;8.262;2023-04-12T09:13:56;0.80;;;0.80;;
17658;SDS011;8948;51.534;8.262;2023-04-12T09:18:57;1.23;;;0.70;;
17658;SDS011;8948;51.534;8.262;2023-04-12T09:24:05;0.70;;;0.70;;
17658;SDS011;8948;51.534;8.262;2023-04-12T09:29:22;0.70;;;0.70;;
17658;SDS011;8948;51.534;8.262;2023-04-12T09:34:26;0.60;;;0.60;;
17658;SDS011;8948;51.534;8.262;2023-04-12T09:39:33;5.13;;;0.80;;
17658;SDS011;8948;51.534;8.262;2023-04-12T09:44:34;0.87;;;0.80;;
17658;SDS011;8948;51.534;8.262;2023-04-12T09:49:39;0.80;;;0.80;;
17658;SDS011;8948;51.534;8.262;2023-04-12T09:54:43;0.73;;;0.73;;
17658;SDS011;8948;51.534;8.262;2023-04-12T09:59:45;0.70;;;0.70;;
17658;SDS011;8948;51.534;8.262;2023-04-12T10:04:48;0.87;;;0.67;;
17658;SDS011;8948;51.534;8.262;2023-04-12T10:09:49;0.67;;;0.67;;
17658;SDS011;8948;51.534;8.262;2023-04-12T10:14:50;0.80;;;0.80;;
17658;SDS011;8948;51.534;8.262;2023-04-12T10:19:52;0.67;;;0.67;;
17658;SDS011;8948;51.534;8.262;2023-04-12T10:24:52;1.00;;;1.00;;
17658;SDS011;8948;51.534;8.262;2023-04-12T10:29:53;0.60;;;0.60;;
17658;SDS011;8948;51.534;8.262;2023-04-12T10:35:21;0.60;;;0.60;;
17658;SDS011;8948;51.534;8.262;2023-04-12T10:40:21;0.60;;;0.60;;
17658;SDS011;8948;51.534;8.262;2023-04-12T10:50:29;0.70;;;0.70;;
17658;SDS011;8948;51.534;8.262;2023-04-12T10:55:31;0.70;;;0.70;;
17658;SDS011;8948;51.534;8.262;2023-04-12T11:06:01;0.70;;;0.70;;
17658;SDS011;8948;51.534;8.262;2023-04-12T11:11:03;0.50;;;0.50;;
17658;SDS011;8948;51.534;8.262;2023-04-12T11:16:16;0.70;;;0.70;;
17658;SDS011;8948;51.534;8.262;2023-04-12T11:21:17;0.60;;;0.60;;
17658;SDS011;8948;51.534;8.262;2023-04-12T11:26:18;0.63;;;0.60;;
17658;SDS011;8948;51.534;8.262;2023-04-12T11:31:20;0.60;;;0.60;;
17658;SDS011;8948;51.534;8.262;2023-04-12T11:36:22;0.70;;;0.70;;
17658;SDS011;8948;51.534;8.262;2023-04-12T11:41:22;0.70;;;0.70;;
17658;SDS011;8948;51.534;8.262;2023-04-12T11:46:23;0.80;;;0.70;;
17658;SDS011;8948;51.534;8.262;2023-04-12T11:51:24;0.60;;;0.60;;
17658;SDS011;8948;51.534;8.262;2023-04-12T11:56:29;0.60;;;0.60;;
17658;SDS011;8948;51.534;8.262;2023-04-12T12:01:33;0.60;;;0.60;;
17658;SDS011;8948;51.534;8.262;2023-04-12T12:06:34;0.70;;;0.70;;
17658;SDS011;8948;51.534;8.262;2023-04-12T12:11:35;0.60;;;0.60;;
17658;SDS011;8948;51.534;8.262;2023-04-12T12:16:35;1.40;;;0.70;;
17658;SDS011;8948;51.534;8.262;2023-04-12T12:21:40;0.70;;;0.70;;
17658;SDS011;8948;51.534;8.262;2023-04-12T12:26:40;0.50;;;0.50;;
17658;SDS011;8948;51.534;8.262;2023-04-12T12:31:44;0.70;;;0.70;;
17658;SDS011;8948;51.534;8.262;2023-04-12T12:36:52;0.65;;;0.65;;
17658;SDS011;8948;51.534;8.262;2023-04-12T12:41:55;0.83;;;0.80;;
17658;SDS011;8948;51.534;8.262;2023-04-12T12:46:57;0.82;;;0.80;;
17658;SDS011;8948;51.534;8.262;2023-04-12T12:51:59;0.80;;;0.80;;
17658;SDS011;8948;51.534;8.262;2023-04-12T12:57:00;1.08;;;0.80;;
17658;SDS011;8948;51.534;8.262;2023-04-12T13:02:02;1.92;;;0.90;;
17658;SDS011;8948;51.534;8.262;2023-04-12T13:07:04;0.70;;;0.70;;
17658;SDS011;8948;51.534;8.262;2023-04-12T13:12:04;0.73;;;0.73;;
17658;SDS011;8948;51.534;8.262;2023-04-12T13:17:05;0.73;;;0.73;;
17658;SDS011;8948;51.534;8.262;2023-04-12T13:22:06;0.80;;;0.80;;
17658;SDS011;8948;51.534;8.262;2023-04-12T13:27:07;0.90;;;0.85;;
17658;SDS011;8948;51.534;8.262;2023-04-12T13:32:08;3.08;;;1.02;;
17658;SDS011;8948;51.534;8.262;2023-04-12T13:37:08;0.98;;;0.90;;
17658;SDS011;8948;51.534;8.262;2023-04-12T13:42:09;1.85;;;1.15;;
17658;SDS011;8948;51.534;8.262;2023-04-12T13:47:10;1.60;;;1.20;;
17658;SDS011;8948;51.534;8.262;2023-04-12T13:52:11;1.40;;;1.30;;
17658;SDS011;8948;51.534;8.262;2023-04-12T13:57:12;3.05;;;1.58;;
17658;SDS011;8948;51.534;8.262;2023-04-12T14:02:13;2.78;;;1.80;;
17658;SDS011;8948;51.534;8.262;2023-04-12T14:07:13;1.92;;;1.50;;
17658;SDS011;8948;51.534;8.262;2023-04-12T14:12:14;2.03;;;1.83;;
17658;SDS011;8948;51.534;8.262;2023-04-12T14:17:15;4.20;;;2.63;;
17658;SDS011;8948;51.534;8.262;2023-04-12T14:22:16;3.23;;;2.87;;
17658;SDS011;8948;51.534;8.262;2023-04-12T14:27:16;3.47;;;2.83;;
17658;SDS011;8948;51.534;8.262;2023-04-12T14:32:17;5.10;;;2.83;;
17658;SDS011;8948;51.534;8.262;2023-04-12T14:37:17;3.60;;;2.20;;
17658;SDS011;8948;51.534;8.262;2023-04-12T14:42:18;3.30;;;1.80;;
17658;SDS011;8948;51.534;8.262;2023-04-12T14:47:18;2.47;;;1.95;;
17658;SDS011;8948;51.534;8.262;2023-04-12T14:52:19;2.20;;;1.77;;
17658;SDS011;8948;51.534;8.262;2023-04-12T14:57:20;5.07;;;2.13;;
17658;SDS011;8948;51.534;8.262;2023-04-12T15:02:21;2.50;;;2.03;;
17658;SDS011;8948;51.534;8.262;2023-04-12T15:07:21;2.00;;;1.70;;
17658;SDS011;8948;51.534;8.262;2023-04-12T15:12:22;2.37;;;1.83;;
17658;SDS011;8948;51.534;8.262;2023-04-12T15:17:22;2.88;;;2.22;;
17658;SDS011;8948;51.534;8.262;2023-04-12T15:22:23;5.87;;;3.03;;
17658;SDS011;8948;51.534;8.262;2023-04-12T15:27:24;4.53;;;2.92;;
17658;SDS011;8948;51.534;8.262;2023-04-12T15:32:25;6.80;;;2.70;;
17658;SDS011;8948;51.534;8.262;2023-04-12T15:37:27;5.87;;;2.47;;
17658;SDS011;8948;51.534;8.262;2023-04-12T15:42:27;4.18;;;2.58;;
17658;SDS011;8948;51.534;8.262;2023-04-12T15:47:28;5.28;;;2.38;;
17658;SDS011;8948;51.534;8.262;2023-04-12T15:52:29;5.93;;;2.20;;
17658;SDS011;8948;51.534;8.262;2023-04-12T15:57:30;5.90;;;2.38;;
17658;SDS011;8948;51.534;8.262;2023-04-12T16:02:31;9.85;;;3.15;;
17658;SDS011;8948;51.534;8.262;2023-04-12T16:07:32;7.50;;;3.10;;
17658;SDS011;8948;51.534;8.262;2023-04-12T16:12:33;7.72;;;3.08;;
17658;SDS011;8948;51.534;8.262;2023-04-12T16:17:34;9.30;;;3.30;;
17658;SDS011;8948;51.534;8.262;2023-04-12T16:22:36;17.37;;;4.30;;
17658;SDS011;8948;51.534;8.262;2023-04-12T16:27:40;11.53;;;3.63;;
17658;SDS011;8948;51.534;8.262;2023-04-12T16:32:41;7.87;;;3.20;;
17658;SDS011;8948;51.534;8.262;2023-04-12T16:37:45;10.80;;;3.70;;
17658;SDS011;8948;51.534;8.262;2023-04-12T16:42:46;12.33;;;3.60;;
17658;SDS011;8948;51.534;8.262;2023-04-12T16:47:47;13.87;;;3.90;;
17658;SDS011;8948;51.534;8.262;2023-04-12T16:52:47;11.63;;;4.30;;
17658;SDS011;8948;51.534;8.262;2023-04-12T16:57:48;13.40;;;4.03;;
17658;SDS011;8948;51.534;8.262;2023-04-12T17:02:52;11.90;;;4.57;;
17658;SDS011;8948;51.534;8.262;2023-04-12T17:07:53;16.30;;;4.80;;
17658;SDS011;8948;51.534;8.262;2023-04-12T17:12:54;19.43;;;5.27;;
17658;SDS011;8948;51.534;8.262;2023-04-12T17:23:10;12.87;;;4.90;;
17658;SDS011;8948;51.534;8.262;2023-04-12T17:28:11;13.30;;;4.70;;
17658;SDS011;8948;51.534;8.262;2023-04-12T17:33:11;12.97;;;5.67;;
17658;SDS011;8948;51.534;8.262;2023-04-12T17:38:12;15.13;;;5.57;;
17658;SDS011;8948;51.534;8.262;2023-04-12T17:43:13;9.40;;;4.93;;
17658;SDS011;8948;51.534;8.262;2023-04-12T17:48:13;21.23;;;6.27;;
17658;SDS011;8948;51.534;8.262;2023-04-12T17:53:14;13.97;;;4.97;;
17658;SDS011;8948;51.534;8.262;2023-04-12T17:58:14;9.33;;;4.30;;
17658;SDS011;8948;51.534;8.262;2023-04-12T18:03:15;11.57;;;3.83;;
17658;SDS011;8948;51.534;8.262;2023-04-12T18:08:16;10.30;;;3.60;;
17658;SDS011;8948;51.534;8.262;2023-04-12T18:13:17;9.33;;;3.87;;
17658;SDS011;8948;51.534;8.262;2023-04-12T18:18:18;9.63;;;3.60;;
17658;SDS011;8948;51.534;8.262;2023-04-12T18:23:18;10.07;;;3.27;;
17658;SDS011;8948;51.534;8.262;2023-04-12T18:28:19;10.67;;;3.53;;
17658;SDS011;8948;51.534;8.262;2023-04-12T18:33:19;9.67;;;3.20;;
17658;SDS011;8948;51.534;8.262;2023-04-12T18:38:20;7.30;;;3.57;;
17658;SDS011;8948;51.534;8.262;2023-04-12T18:43:21;11.10;;;3.13;;
17658;SDS011;8948;51.534;8.262;2023-04-12T18:48:21;8.30;;;3.73;;
17658;SDS011;8948;51.534;8.262;2023-04-12T18:53:22;7.10;;;3.30;;
17658;SDS011;8948;51.534;8.262;2023-04-12T18:58:23;5.10;;;2.97;;
17658;SDS011;8948;51.534;8.262;2023-04-12T19:03:23;9.47;;;3.50;;
17658;SDS011;8948;51.534;8.262;2023-04-12T19:08:24;12.30;;;3.20;;
17658;SDS011;8948;51.534;8.262;2023-04-12T19:13:25;15.20;;;3.60;;
17658;SDS011;8948;51.534;8.262;2023-04-12T19:18:27;8.00;;;4.17;;
17658;SDS011;8948;51.534;8.262;2023-04-12T19:23:29;6.70;;;3.47;;
17658;SDS011;8948;51.534;8.262;2023-04-12T19:28:30;7.03;;;3.20;;
17658;SDS011;8948;51.534;8.262;2023-04-12T19:33:30;9.90;;;3.30;;
17658;SDS011;8948;51.534;8.262;2023-04-12T19:38:31;9.47;;;3.87;;
17658;SDS011;8948;51.534;8.262;2023-04-12T19:43:32;8.27;;;3.17;;
17658;SDS011;8948;51.534;8.262;2023-04-12T19:48:32;9.50;;;3.27;;
17658;SDS011;8948;51.534;8.262;2023-04-12T19:53:33;9.43;;;4.57;;
17658;SDS011;8948;51.534;8.262;2023-04-12T19:58:33;8.33;;;4.43;;
17658;SDS011;8948;51.534;8.262;2023-04-12T20:03:34;11.60;;;5.83;;
17658;SDS011;8948;51.534;8.262;2023-04-12T20:08:34;10.97;;;5.10;;
17658;SDS011;8948;51.534;8.262;2023-04-12T20:13:36;10.37;;;4.63;;
17658;SDS011;8948;51.534;8.262;2023-04-12T20:18:36;8.43;;;4.70;;
17658;SDS011;8948;51.534;8.262;2023-04-12T20:23:37;7.00;;;3.90;;
17658;SDS011;8948;51.534;8.262;2023-04-12T20:28:38;6.97;;;3.90;;
17658;SDS011;8948;51.534;8.262;2023-04-12T20:33:38;7.83;;;3.40;;
17658;SDS011;8948;51.534;8.262;2023-04-12T20:38:40;6.10;;;3.07;;
17658;SDS011;8948;51.534;8.262;2023-04-12T20:43:42;9.73;;;3.23;;
17658;SDS011;8948;51.534;8.262;2023-04-12T20:48:45;5.90;;;3.00;;
17658;SDS011;8948;51.534;8.262;2023-04-12T20:53:47;5.53;;;2.33;;
17658;SDS011;8948;51.534;8.262;2023-04-12T20:58:47;4.87;;;2.70;;
17658;SDS011;8948;51.534;8.262;2023-04-12T21:03:48;6.40;;;2.53;;
17658;SDS011;8948;51.534;8.262;2023-04-12T21:08:49;4.87;;;2.43;;
17658;SDS011;8948;51.534;8.262;2023-04-12T21:13:50;5.83;;;2.30;;
17658;SDS011;8948;51.534;8.262;2023-04-12T21:18:51;7.93;;;2.33;;
17658;SDS011;8948;51.534;8.262;2023-04-12T21:23:52;2.40;;;1.93;;
17658;SDS011;8948;51.534;8.262;2023-04-12T21:28:53;3.13;;;2.13;;
17658;SDS011;8948;51.534;8.262;2023-04-12T21:33:53;5.07;;;2.37;;
17658;SDS011;8948;51.534;8.262;2023-04-12T21:38:58;5.40;;;2.20;;
17658;SDS011;8948;51.534;8.262;2023-04-12T21:43:58;2.73;;;1.80;;
17658;SDS011;8948;51.534;8.262;2023-04-12T21:48:59;5.73;;;2.20;;
17658;SDS011;8948;51.534;8.262;2023-04-12T21:53:59;4.50;;;2.50;;
17658;SDS011;8948;51.534;8.262;2023-04-12T21:59:00;6.80;;;2.50;;
17658;SDS011;8948;51.534;8.262;2023-04-12T22:04:01;7.83;;;2.10;;
17658;SDS011;8948;51.534;8.262;2023-04-12T22:09:03;4.83;;;2.20;;
17658;SDS011;8948;51.534;8.262;2023-04-12T22:14:04;4.40;;;2.30;;
17658;SDS011;8948;51.534;8.262;2023-04-12T22:19:04;3.90;;;2.10;;
17658;SDS011;8948;51.534;8.262;2023-04-12T22:24:05;5.37;;;2.37;;
17658;SDS011;8948;51.534;8.262;2023-04-12T22:29:07;4.93;;;1.90;;
17658;SDS011;8948;51.534;8.262;2023-04-12T22:34:08;4.67;;;1.87;;
17658;SDS011;8948;51.534;8.262;2023-04-12T22:39:09;7.13;;;2.20;;
17658;SDS011;8948;51.534;8.262;2023-04-12T22:44:15;3.20;;;2.20;;
17658;SDS011;8948;51.534;8.262;2023-04-12T22:49:16;5.80;;;1.93;;
17658;SDS011;8948;51.534;8.262;2023-04-12T22:54:18;5.43;;;2.10;;
17658;SDS011;8948;51.534;8.262;2023-04-12T22:59:19;5.83;;;2.10;;
17658;SDS011;8948;51.534;8.262;2023-04-12T23:04:21;3.73;;;2.23;;
17658;SDS011;8948;51.534;8.262;2023-04-12T23:09:22;5.27;;;2.10;;
17658;SDS011;8948;51.534;8.262;2023-04-12T23:14:23;3.90;;;2.10;;
17658;SDS011;8948;51.534;8.262;2023-04-12T23:19:23;3.47;;;1.73;;
17658;SDS011;8948;51.534;8.262;2023-04-12T23:24:24;3.27;;;1.90;;
17658;SDS011;8948;51.534;8.262;2023-04-12T23:29:25;2.63;;;1.80;;
17658;SDS011;8948;51.534;8.262;2023-04-12T23:34:26;4.93;;;2.03;;
17658;SDS011;8948;51.534;8.262;2023-04-12T23:39:29;3.03;;;1.63;;
17658;SDS011;8948;51.534;8.262;2023-04-12T23:44:30;1.60;;;1.47;;
17658;SDS011;8948;51.534;8.262;2023-04-12T23:49:31;3.83;;;1.83;;
17658;SDS011;8948;51.534;8.262;2023-04-12T23:54:31;1.73;;;1.63;;
17658;SDS011;8948;51.534;8.262;2023-04-12T23:59:32;3.83;;;2.30;;
